createdAt,value
2018-10-16T00:02:15.397Z,95409.12
2018-10-16T00:04:51.214Z,95400.83
2018-10-16T00:07:23.308Z,95411.45
2018-10-16T00:09:55.409Z,95410.21
2018-10-16T00:12:27.493Z,95415.61
2018-10-16T00:14:59.628Z,95412.98
2018-10-16T00:17:31.694Z,95411.30
2018-10-16T00:20:04.370Z,95410.15
2018-10-16T00:22:36.541Z,95406.80
2018-10-16T00:25:12.571Z,95417.78
2018-10-16T00:27:44.903Z,95416.56
2018-10-16T00:30:17.057Z,95411.40
2018-10-16T00:32:49.270Z,95414.03
2018-10-16T00:35:21.327Z,95412.56
2018-10-16T00:37:53.415Z,95416.67
2018-10-16T00:40:25.537Z,95423.77
2018-10-16T00:42:57.708Z,95423.22
2018-10-16T00:45:29.750Z,95423.33
2018-10-16T00:48:01.843Z,95423.48
2018-10-16T00:50:33.974Z,95424.97
2018-10-16T00:53:06.131Z,95423.93
2018-10-16T00:55:38.139Z,95425.66
2018-10-16T00:58:10.254Z,95423.86
2018-10-16T01:00:42.374Z,95427.37
2018-10-16T01:03:14.470Z,95432.03
2018-10-16T01:05:47.508Z,95430.75
2018-10-16T01:08:19.598Z,95430.25
2018-10-16T01:10:51.705Z,95431.29
2018-10-16T01:13:23.787Z,95431.00
2018-10-16T01:15:55.920Z,95427.84
2018-10-16T01:18:28.074Z,95429.74
2018-10-16T01:21:00.554Z,95435.36
2018-10-16T01:23:32.603Z,95437.25
2018-10-16T01:26:04.706Z,95444.45
2018-10-16T01:28:36.842Z,95442.37
2018-10-16T01:31:09.286Z,95444.14
2018-10-16T01:33:41.928Z,95441.28
2018-10-16T01:36:14.049Z,95441.39
2018-10-16T01:38:46.129Z,95439.43
2018-10-16T01:41:18.204Z,95437.95
2018-10-16T01:43:50.365Z,95432.84
2018-10-16T01:46:22.427Z,95435.37
2018-10-16T01:48:54.537Z,95433.59
2018-10-16T01:51:26.644Z,95428.09
2018-10-16T01:53:58.732Z,95424.97
2018-10-16T01:56:30.825Z,95425.09
2018-10-16T01:59:02.994Z,95430.49
2018-10-16T02:01:35.010Z,95438.58
2018-10-16T02:04:07.083Z,95431.33
2018-10-16T02:06:39.202Z,95442.40
2018-10-16T02:09:13.292Z,95438.22
2018-10-16T02:11:45.391Z,95440.89
2018-10-16T02:14:17.475Z,95444.11
2018-10-16T02:16:49.570Z,95445.42
2018-10-16T02:19:21.663Z,95446.36
2018-10-16T02:21:53.770Z,95444.36
2018-10-16T02:24:25.870Z,95441.49
2018-10-16T02:26:58.062Z,95447.47
2018-10-16T02:29:30.572Z,95448.78
2018-10-16T02:32:02.740Z,95448.27
2018-10-16T02:34:34.895Z,95446.09
2018-10-16T02:37:07.356Z,95449.30
2018-10-16T02:39:39.594Z,95451.56
2018-10-16T02:42:11.722Z,95449.92
2018-10-16T02:44:43.796Z,95452.05
2018-10-16T02:47:15.995Z,95456.53
2018-10-16T02:49:51.287Z,95453.78
2018-10-16T02:52:23.409Z,95461.40
2018-10-16T02:54:55.588Z,95459.20
2018-10-16T02:57:27.862Z,95459.67
2018-10-16T03:00:00.502Z,95460.16
2018-10-16T03:02:32.630Z,95463.69
2018-10-16T03:05:04.718Z,95465.03
2018-10-16T03:07:36.803Z,95467.86
2018-10-16T03:10:09.346Z,95468.73
2018-10-16T03:12:41.346Z,95468.70
2018-10-16T03:15:14.703Z,95468.13
2018-10-16T03:17:46.892Z,95470.24
2018-10-16T03:20:19.004Z,95465.05
2018-10-16T03:22:50.998Z,95462.97
2018-10-16T03:25:23.061Z,95473.91
2018-10-16T03:27:55.192Z,95478.36
2018-10-16T03:30:27.290Z,95476.97
2018-10-16T03:32:59.481Z,95477.86
2018-10-16T03:35:31.564Z,95484.22
2018-10-16T03:38:03.815Z,95484.41
2018-10-16T03:40:36.006Z,95487.56
2018-10-16T03:43:08.048Z,95496.05
2018-10-16T03:45:40.149Z,95496.39
2018-10-16T03:48:12.281Z,95502.61
2018-10-16T03:50:44.360Z,95502.16
2018-10-16T03:53:16.450Z,95509.64
2018-10-16T03:55:48.609Z,95507.20
2018-10-16T03:58:20.710Z,95503.52
2018-10-16T04:00:52.824Z,95504.12
2018-10-16T04:03:25.644Z,95510.74
2018-10-16T04:05:57.704Z,95509.70
2018-10-16T04:08:29.846Z,95505.81
2018-10-16T04:11:02.000Z,95510.92
2018-10-16T04:13:34.034Z,95508.59
2018-10-16T04:16:06.424Z,95511.77
2018-10-16T04:18:38.446Z,95521.98
2018-10-16T04:21:11.282Z,95527.17
2018-10-16T04:23:44.093Z,95526.73
2018-10-16T04:26:16.334Z,95523.89
2018-10-16T04:28:48.348Z,95529.31
2018-10-16T04:31:20.524Z,95535.55
2018-10-16T04:33:55.615Z,95525.48
2018-10-16T04:36:27.758Z,95534.06
2018-10-16T04:39:00.300Z,95536.14
2018-10-16T04:41:32.489Z,95534.46
2018-10-16T04:44:07.590Z,95538.36
2018-10-16T04:46:39.678Z,95533.29
2018-10-16T04:49:11.770Z,95539.25
2018-10-16T04:51:43.845Z,95534.92
2018-10-16T04:54:16.029Z,95540.89
2018-10-16T04:56:48.145Z,95542.31
2018-10-16T04:59:20.285Z,95553.27
2018-10-16T05:01:52.584Z,95545.95
2018-10-16T05:04:24.631Z,95554.77
2018-10-16T05:06:56.729Z,95552.86
2018-10-16T05:09:28.877Z,95560.12
2018-10-16T05:12:01.006Z,95571.58
2018-10-16T05:14:33.133Z,95562.06
2018-10-16T05:17:05.230Z,95564.53
2018-10-16T05:19:37.396Z,95566.89
2018-10-16T05:22:09.621Z,95568.13
2018-10-16T05:24:41.749Z,95570.77
2018-10-16T05:27:16.566Z,95568.20
2018-10-16T05:29:48.745Z,95566.64
2018-10-16T05:32:20.814Z,95570.91
2018-10-16T05:34:53.043Z,95576.88
2018-10-16T05:37:25.171Z,95577.92
2018-10-16T05:39:57.297Z,95582.28
2018-10-16T05:42:29.403Z,95590.97
2018-10-16T05:45:01.603Z,95582.58
2018-10-16T05:47:33.630Z,95589.15
2018-10-16T05:50:05.789Z,95601.23
2018-10-16T05:52:38.092Z,95598.80
2018-10-16T05:55:11.010Z,95603.54
2018-10-16T05:57:43.133Z,95603.73
2018-10-16T06:00:44.155Z,95609.41
2018-10-16T06:03:16.241Z,95616.25
2018-10-16T06:05:48.474Z,95621.93
2018-10-16T06:08:20.463Z,95626.00
2018-10-16T06:10:52.673Z,95626.59
2018-10-16T06:13:24.669Z,95628.83
2018-10-16T06:15:56.858Z,95633.92
2018-10-16T06:18:28.861Z,95632.48
2018-10-16T06:21:00.974Z,95628.24
2018-10-16T06:23:33.065Z,95630.80
2018-10-16T06:26:05.173Z,95629.89
2018-10-16T06:28:37.335Z,95635.07
2018-10-16T06:31:09.541Z,95633.22
2018-10-16T06:33:41.645Z,95631.52
2018-10-16T06:36:16.484Z,95635.38
2018-10-16T06:38:46.082Z,95634.17
2018-10-16T06:41:18.351Z,95637.47
2018-10-16T06:43:50.361Z,95636.26
2018-10-16T06:46:22.617Z,95644.70
2018-10-16T06:48:55.364Z,95642.42
2018-10-16T06:51:27.235Z,95641.22
2018-10-16T06:53:59.370Z,95651.80
2018-10-16T06:56:31.572Z,95639.96
2018-10-16T06:59:03.692Z,95642.20
2018-10-16T07:01:35.850Z,95635.44
2018-10-16T07:04:08.682Z,95632.97
2018-10-16T07:06:40.860Z,95640.42
2018-10-16T07:09:12.952Z,95634.44
2018-10-16T07:11:45.621Z,95638.92
2018-10-16T07:14:17.726Z,95632.92
2018-10-16T07:16:51.901Z,95634.48
2018-10-16T07:19:24.247Z,95632.63
2018-10-16T07:21:56.773Z,95632.17
2018-10-16T07:24:29.060Z,95637.52
2018-10-16T07:27:01.361Z,95638.48
2018-10-16T07:29:33.514Z,95635.13
2018-10-16T07:32:06.300Z,95633.30
2018-10-16T07:34:38.556Z,95632.39
2018-10-16T07:37:10.692Z,95626.84
2018-10-16T07:39:42.856Z,95625.09
2018-10-16T07:42:15.162Z,95625.80
2018-10-16T07:44:47.203Z,95626.82
2018-10-16T07:47:19.518Z,95627.89
2018-10-16T07:49:52.152Z,95627.73
2018-10-16T07:52:24.376Z,95629.98
2018-10-16T07:54:58.972Z,95622.44
2018-10-16T07:57:31.100Z,95618.55
2018-10-16T08:00:03.340Z,95628.43
2018-10-16T08:02:35.584Z,95625.86
2018-10-16T08:05:08.912Z,95625.91
2018-10-16T08:07:41.784Z,95621.59
2018-10-16T08:10:14.832Z,95617.59
2018-10-16T08:12:47.028Z,95626.80
2018-10-16T08:15:19.330Z,95617.13
2018-10-16T08:17:51.632Z,95619.16
2018-10-16T08:20:23.876Z,95619.72
2018-10-16T08:22:56.210Z,95619.95
2018-10-16T08:25:28.506Z,95620.94
2018-10-16T08:28:00.894Z,95616.85
2018-10-16T08:30:33.137Z,95613.28
2018-10-16T08:33:05.331Z,95616.73
2018-10-16T08:35:40.037Z,95616.39
2018-10-16T08:38:56.733Z,95621.31
2018-10-16T08:41:47.653Z,95614.44
2018-10-16T08:45:25.875Z,95617.56
2018-10-16T08:49:02.465Z,95618.87
2018-10-16T08:51:50.052Z,95627.22
2018-10-16T08:54:22.495Z,95623.28
2018-10-16T08:56:54.704Z,95618.68
2018-10-16T08:59:27.258Z,95627.91
2018-10-16T09:02:01.094Z,95632.83
2018-10-16T09:04:31.626Z,95630.70
2018-10-16T09:07:03.778Z,95620.81
2018-10-16T09:09:35.908Z,95626.21
2018-10-16T09:12:08.341Z,95623.88
2018-10-16T09:14:40.518Z,95623.73
2018-10-16T09:17:12.608Z,95628.70
2018-10-16T09:19:45.152Z,95626.91
2018-10-16T09:22:17.418Z,95633.55
2018-10-16T09:24:49.561Z,95635.62
2018-10-16T09:27:21.674Z,95630.98
2018-10-16T09:29:53.893Z,95634.53
2018-10-16T09:32:28.836Z,95634.30
2018-10-16T09:35:01.229Z,95635.45
2018-10-16T09:37:33.729Z,95641.02
2018-10-16T09:40:06.457Z,95640.98
2018-10-16T09:42:38.741Z,95645.28
2018-10-16T09:45:12.054Z,95635.72
2018-10-16T09:47:44.270Z,95638.84
2018-10-16T09:50:16.389Z,95641.70
2018-10-16T09:52:48.570Z,95639.83
2018-10-16T09:55:20.741Z,95641.36
2018-10-16T09:57:55.118Z,95632.58
2018-10-16T10:00:44.665Z,95643.15
2018-10-16T10:03:16.753Z,95643.55
2018-10-16T10:05:48.893Z,95641.56
2018-10-16T10:08:21.117Z,95644.76
2018-10-16T10:10:53.435Z,95644.58
2018-10-16T10:13:26.053Z,95647.34
2018-10-16T10:15:58.693Z,95642.14
2018-10-16T10:18:33.289Z,95649.28
2018-10-16T10:21:05.404Z,95642.95
2018-10-16T10:23:37.547Z,95636.13
2018-10-16T10:26:09.703Z,95634.88
2018-10-16T10:28:41.842Z,95633.11
2018-10-16T10:31:14.030Z,95638.16
2018-10-16T10:33:46.146Z,95629.05
2018-10-16T10:36:18.308Z,95630.98
2018-10-16T10:38:50.449Z,95630.44
2018-10-16T10:41:25.719Z,95630.30
2018-10-16T10:43:57.922Z,95627.49
2018-10-16T10:46:33.551Z,95632.28
2018-10-16T10:49:04.051Z,95624.33
2018-10-16T10:51:36.507Z,95625.20
2018-10-16T10:54:09.096Z,95625.47
2018-10-16T10:56:41.537Z,95628.03
2018-10-16T10:59:13.504Z,95618.97
2018-10-16T11:01:45.890Z,95614.59
2018-10-16T11:04:18.049Z,95606.84
2018-10-16T11:06:51.062Z,95614.09
2018-10-16T11:09:23.318Z,95607.55
2018-10-16T11:11:56.514Z,95606.06
2018-10-16T11:14:29.314Z,95611.64
2018-10-16T11:17:04.285Z,95609.52
2018-10-16T11:19:36.503Z,95602.84
2018-10-16T11:22:08.671Z,95604.02
2018-10-16T11:24:40.981Z,95600.33
2018-10-16T11:27:13.151Z,95607.45
2018-10-16T11:29:45.221Z,95601.67
2018-10-16T11:32:17.383Z,95597.25
2018-10-16T11:34:49.534Z,95596.97
2018-10-16T11:37:21.696Z,95593.91
2018-10-16T11:39:53.877Z,95601.11
2018-10-16T11:42:28.293Z,95596.52
2018-10-16T11:45:00.553Z,95597.90
2018-10-16T11:47:33.004Z,95589.40
2018-10-16T11:50:05.488Z,95595.95
2018-10-16T11:52:37.624Z,95594.29
2018-10-16T11:55:10.519Z,95598.26
2018-10-16T11:57:42.737Z,95596.17
2018-10-16T12:00:19.034Z,95593.36
2018-10-16T12:02:51.109Z,95596.58
2018-10-16T12:05:23.434Z,95593.19
2018-10-16T12:07:55.787Z,95595.32
2018-10-16T12:10:27.897Z,95597.07
2018-10-16T12:13:00.107Z,95598.75
2018-10-16T12:15:32.237Z,95590.38
2018-10-16T12:18:10.290Z,95593.98
2018-10-16T12:21:01.069Z,95593.84
2018-10-16T12:23:33.236Z,95597.84
2018-10-16T12:26:05.440Z,95588.23
2018-10-16T12:28:37.545Z,95587.78
2018-10-16T12:31:09.897Z,95588.89
2018-10-16T12:33:42.019Z,95589.34
2018-10-16T12:36:14.166Z,95586.25
2018-10-16T12:38:46.446Z,95585.28
2018-10-16T12:41:18.550Z,95577.21
2018-10-16T12:43:50.704Z,95579.94
2018-10-16T12:46:22.853Z,95580.30
2018-10-16T12:48:55.049Z,95575.89
2018-10-16T12:51:27.306Z,95573.58
2018-10-16T12:53:59.584Z,95563.45
2018-10-16T12:56:31.738Z,95567.70
2018-10-16T12:59:04.364Z,95569.71
2018-10-16T13:01:45.661Z,95561.43
2018-10-16T13:04:17.875Z,95565.17
2018-10-16T13:06:49.905Z,95561.78
2018-10-16T13:09:22.588Z,95563.26
2018-10-16T13:11:54.681Z,95562.09
2018-10-16T13:14:26.932Z,95565.32
2018-10-16T13:16:59.178Z,95565.75
2018-10-16T13:19:31.559Z,95565.56
2018-10-16T13:22:03.831Z,95562.05
2018-10-16T13:24:36.095Z,95564.09
2018-10-16T13:27:08.475Z,95568.16
2018-10-16T13:29:40.817Z,95565.80
2018-10-16T13:32:12.797Z,95563.60
2018-10-16T13:34:44.984Z,95558.66
2018-10-16T13:37:17.187Z,95564.23
2018-10-16T13:39:49.304Z,95561.50
2018-10-16T13:42:21.548Z,95557.63
2018-10-16T13:44:53.817Z,95562.88
2018-10-16T13:47:28.656Z,95561.84
2018-10-16T13:50:01.033Z,95566.64
2018-10-16T13:52:33.126Z,95560.57
2018-10-16T13:55:05.300Z,95562.98
2018-10-16T13:57:39.691Z,95562.52
2018-10-16T14:00:17.283Z,95562.52
2018-10-16T14:02:50.894Z,95556.10
2018-10-16T14:05:23.131Z,95553.45
2018-10-16T14:07:55.302Z,95552.92
2018-10-16T14:10:27.388Z,95550.45
2018-10-16T14:13:02.848Z,95546.73
2018-10-16T14:15:32.390Z,95542.37
2018-10-16T14:18:04.389Z,95551.08
2018-10-16T14:20:36.582Z,95543.48
2018-10-16T14:23:08.865Z,95545.34
2018-10-16T14:25:41.177Z,95543.36
2018-10-16T14:28:15.317Z,95539.12
2018-10-16T14:30:49.948Z,95543.23
2018-10-16T14:33:22.044Z,95540.14
2018-10-16T14:35:54.190Z,95546.73
2018-10-16T14:38:26.391Z,95546.08
2018-10-16T14:40:58.621Z,95541.78
2018-10-16T14:43:30.871Z,95549.22
2018-10-16T14:46:03.832Z,95541.38
2018-10-16T14:48:36.098Z,95536.97
2018-10-16T14:51:08.421Z,95542.10
2018-10-16T14:53:40.532Z,95544.25
2018-10-16T14:56:12.886Z,95540.84
2018-10-16T14:58:44.990Z,95540.35
2018-10-16T15:01:17.261Z,95545.45
2018-10-16T15:03:49.477Z,95547.53
2018-10-16T15:06:22.182Z,95541.84
2018-10-16T15:08:54.364Z,95542.33
2018-10-16T15:11:26.602Z,95543.89
2018-10-16T15:13:59.105Z,95544.02
2018-10-16T15:16:31.251Z,95540.78
2018-10-16T15:19:03.398Z,95545.78
2018-10-16T15:21:35.604Z,95552.56
2018-10-16T15:24:08.155Z,95547.63
2018-10-16T15:26:40.222Z,95542.13
2018-10-16T15:29:12.395Z,95542.48
2018-10-16T15:31:44.577Z,95546.80
2018-10-16T15:34:16.717Z,95542.48
2018-10-16T15:36:48.949Z,95547.53
2018-10-16T15:39:21.117Z,95548.80
2018-10-16T15:41:53.336Z,95549.30
2018-10-16T15:44:25.498Z,95559.81
2018-10-16T15:46:57.620Z,95553.59
2018-10-16T15:49:35.145Z,95554.66
2018-10-16T15:52:07.836Z,95554.42
2018-10-16T15:54:39.950Z,95564.64
2018-10-16T15:57:12.523Z,95560.72
2018-10-16T15:59:44.584Z,95560.91
2018-10-16T16:02:16.717Z,95566.20
2018-10-16T16:04:48.881Z,95568.06
2018-10-16T16:07:23.311Z,95573.36
2018-10-16T16:09:55.469Z,95575.28
2018-10-16T16:12:27.644Z,95576.66
2018-10-16T16:15:00.193Z,95580.77
2018-10-16T16:17:32.302Z,95589.89
2018-10-16T16:20:04.459Z,95583.03
2018-10-16T16:22:36.637Z,95591.25
2018-10-16T16:25:13.280Z,95592.66
2018-10-16T16:27:45.393Z,95597.20
2018-10-16T16:30:17.983Z,95595.06
2018-10-16T16:32:50.281Z,95599.40
2018-10-16T16:35:25.106Z,95600.02
2018-10-16T16:37:57.542Z,95599.66
2018-10-16T16:40:29.635Z,95599.25
2018-10-16T16:43:01.847Z,95604.95
2018-10-16T16:45:34.052Z,95604.59
2018-10-16T16:48:06.541Z,95610.06
2018-10-16T16:50:38.718Z,95612.58
2018-10-16T16:53:10.920Z,95610.79
2018-10-16T16:55:42.979Z,95615.73
2018-10-16T16:58:15.212Z,95618.52
2018-10-16T17:00:47.255Z,95622.00
2018-10-16T17:03:19.397Z,95624.59
2018-10-16T17:05:51.747Z,95618.98
2018-10-16T17:08:23.972Z,95628.23
2018-10-16T17:10:56.177Z,95629.55
2018-10-16T17:13:28.312Z,95632.16
2018-10-16T17:16:00.479Z,95636.08
2018-10-16T17:18:32.731Z,95643.13
2018-10-16T17:21:05.190Z,95644.03
2018-10-16T17:23:37.579Z,95645.97
2018-10-16T17:26:09.975Z,95652.53
2018-10-16T17:28:42.005Z,95649.98
2018-10-16T17:31:14.052Z,95649.55
2018-10-16T17:33:46.204Z,95654.06
2018-10-16T17:36:20.862Z,95653.92
2018-10-16T17:38:53.063Z,95662.20
2018-10-16T17:41:25.322Z,95661.81
2018-10-16T17:43:57.439Z,95665.97
2018-10-16T17:46:29.664Z,95668.28
2018-10-16T17:49:01.714Z,95667.50
2018-10-16T17:51:34.359Z,95671.98
2018-10-16T17:54:06.765Z,95671.03
2018-10-16T17:56:38.866Z,95665.64
2018-10-16T17:59:11.127Z,95667.84
2018-10-16T18:01:43.484Z,95663.39
2018-10-16T18:04:15.666Z,95665.05
2018-10-16T18:06:47.937Z,95665.98
2018-10-16T18:09:20.148Z,95660.73
2018-10-16T18:11:52.349Z,95666.15
2018-10-16T18:14:24.510Z,95664.95
2018-10-16T18:16:56.618Z,95668.48
2018-10-16T18:19:29.051Z,95674.11
2018-10-16T18:22:01.237Z,95673.42
2018-10-16T18:24:33.378Z,95682.46
2018-10-16T18:27:08.926Z,95682.02
2018-10-16T18:29:41.947Z,95676.81
2018-10-16T18:32:13.964Z,95680.89
2018-10-16T18:34:46.092Z,95677.05
2018-10-16T18:37:18.174Z,95682.64
2018-10-16T18:39:50.341Z,95681.30
2018-10-16T18:42:22.663Z,95679.45
2018-10-16T18:44:54.726Z,95680.83
2018-10-16T18:47:26.810Z,95682.56
2018-10-16T18:49:58.966Z,95681.14
2018-10-16T18:52:31.081Z,95682.73
2018-10-16T18:55:03.241Z,95688.31
2018-10-16T18:57:35.343Z,95689.66
2018-10-16T19:00:08.788Z,95689.17
2018-10-16T19:02:41.069Z,95688.36
2018-10-16T19:05:13.188Z,95685.75
2018-10-16T19:07:45.369Z,95689.95
2018-10-16T19:10:17.399Z,95688.48
2018-10-16T19:12:49.543Z,95693.30
2018-10-16T19:15:21.643Z,95689.52
2018-10-16T19:17:53.733Z,95696.67
2018-10-16T19:20:25.842Z,95693.33
2018-10-16T19:22:57.971Z,95692.15
2018-10-16T19:25:30.104Z,95696.17
2018-10-16T19:28:02.252Z,95691.51
2018-10-16T19:30:34.398Z,95691.27
2018-10-16T19:33:06.550Z,95693.83
2018-10-16T19:35:38.665Z,95692.98
2018-10-16T19:38:10.766Z,95693.80
2018-10-16T19:40:45.855Z,95697.98
2018-10-16T19:43:17.962Z,95694.67
2018-10-16T19:45:50.168Z,95695.46
2018-10-16T19:48:22.278Z,95698.01
2018-10-16T19:50:54.636Z,95697.68
2018-10-16T19:53:28.827Z,95707.62
2018-10-16T19:56:00.966Z,95704.41
2018-10-16T19:58:33.055Z,95708.64
2018-10-16T20:01:05.321Z,95705.09
2018-10-16T20:03:37.425Z,95709.07
2018-10-16T20:06:09.553Z,95705.50
2018-10-16T20:08:41.711Z,95703.80
2018-10-16T20:11:13.800Z,95697.55
2018-10-16T20:13:45.901Z,95702.83
2018-10-16T20:16:18.048Z,95700.92
2018-10-16T20:18:50.244Z,95698.64
2018-10-16T20:21:22.302Z,95701.19
2018-10-16T20:23:56.488Z,95700.95
2018-10-16T20:26:27.057Z,95702.55
2018-10-16T20:28:59.084Z,95702.17
2018-10-16T20:31:31.324Z,95702.88
2018-10-16T20:34:03.322Z,95702.06
2018-10-16T20:36:35.614Z,95698.64
2018-10-16T20:39:12.988Z,95693.06
2018-10-16T20:41:45.224Z,95696.50
2018-10-16T20:44:17.290Z,95694.44
2018-10-16T20:46:49.329Z,95697.44
2018-10-16T20:49:21.425Z,95697.84
2018-10-16T20:51:55.760Z,95702.39
2018-10-16T20:54:27.852Z,95694.11
2018-10-16T20:57:00.144Z,95692.77
2018-10-16T20:59:32.142Z,95691.57
2018-10-16T21:02:05.780Z,95689.63
2018-10-16T21:04:37.943Z,95686.96
2018-10-16T21:07:10.073Z,95681.82
2018-10-16T21:09:42.130Z,95684.22
2018-10-16T21:12:15.012Z,95692.51
2018-10-16T21:14:47.060Z,95693.95
2018-10-16T21:17:19.203Z,95689.48
2018-10-16T21:19:51.271Z,95689.09
2018-10-16T21:22:23.374Z,95687.70
2018-10-16T21:24:55.470Z,95684.01
2018-10-16T21:27:27.561Z,95684.12
2018-10-16T21:29:59.631Z,95683.75
2018-10-16T21:32:31.849Z,95688.09
2018-10-16T21:35:04.003Z,95689.27
2018-10-16T21:37:36.015Z,95682.58
2018-10-16T21:40:09.290Z,95683.93
2018-10-16T21:42:44.351Z,95688.02
2018-10-16T21:45:16.449Z,95680.42
2018-10-16T21:47:48.579Z,95685.05
2018-10-16T21:50:20.678Z,95680.03
2018-10-16T21:52:52.809Z,95685.31
2018-10-16T21:55:24.883Z,95682.38
2018-10-16T21:57:57.032Z,95684.63
2018-10-16T22:00:46.550Z,95684.70
2018-10-16T22:03:18.745Z,95690.50
2018-10-16T22:05:50.798Z,95684.75
2018-10-16T22:08:23.017Z,95686.18
2018-10-16T22:10:55.039Z,95682.03
2018-10-16T22:13:27.136Z,95683.59
2018-10-16T22:15:59.228Z,95683.58
2018-10-16T22:18:31.349Z,95682.95
2018-10-16T22:21:03.511Z,95683.26
2018-10-16T22:23:35.611Z,95678.52
2018-10-16T22:26:07.606Z,95677.67
2018-10-16T22:28:39.779Z,95675.16
2018-10-16T22:31:11.928Z,95673.77
2018-10-16T22:33:43.915Z,95677.38
2018-10-16T22:36:16.052Z,95677.75
2018-10-16T22:38:48.161Z,95678.33
2018-10-16T22:41:20.545Z,95680.02
2018-10-16T22:43:53.082Z,95683.33
2018-10-16T22:46:28.020Z,95682.88
2018-10-16T22:49:00.138Z,95686.44
2018-10-16T22:51:32.271Z,95684.02
2018-10-16T22:54:06.956Z,95685.95
2018-10-16T22:56:39.027Z,95688.09
2018-10-16T22:59:11.217Z,95687.89
2018-10-16T23:01:43.234Z,95686.92
2018-10-16T23:04:15.367Z,95687.52
2018-10-16T23:06:47.450Z,95690.70
2018-10-16T23:09:19.558Z,95693.13
2018-10-16T23:11:51.645Z,95689.98
2018-10-16T23:14:23.752Z,95690.83
2018-10-16T23:16:55.891Z,95687.72
2018-10-16T23:19:27.951Z,95689.61
2018-10-16T23:22:00.046Z,95685.88
2018-10-16T23:24:32.264Z,95687.46
2018-10-16T23:27:04.254Z,95681.80
2018-10-16T23:29:36.392Z,95679.00
2018-10-16T23:32:08.676Z,95675.72
2018-10-16T23:34:40.895Z,95679.06
2018-10-16T23:37:13.025Z,95681.09
2018-10-16T23:39:47.398Z,95678.74
2018-10-16T23:42:19.595Z,95683.28
2018-10-16T23:44:51.602Z,95686.20
2018-10-16T23:47:23.694Z,95686.55
2018-10-16T23:49:55.892Z,95685.28
2018-10-16T23:52:27.909Z,95691.83
2018-10-16T23:55:00.291Z,95685.08
2018-10-16T23:57:32.260Z,95688.27
